createdAt,value
2018-06-27T00:00:58.172Z,99.90
2018-06-27T00:03:26.621Z,99.90
2018-06-27T00:05:55.744Z,99.90
2018-06-27T00:08:24.292Z,99.90
2018-06-27T00:10:52.742Z,99.90
2018-06-27T00:13:21.283Z,99.90
2018-06-27T00:15:49.793Z,99.90
2018-06-27T00:18:19.243Z,99.90
2018-06-27T00:20:47.714Z,99.90
2018-06-27T00:23:16.321Z,99.90
2018-06-27T00:25:44.833Z,99.90
2018-06-27T00:28:13.304Z,99.90
2018-06-27T00:30:41.799Z,99.90
2018-06-27T00:33:10.260Z,99.90
2018-06-27T00:35:38.765Z,99.90
2018-06-27T00:38:13.175Z,99.90
2018-06-27T00:40:41.841Z,99.90
2018-06-27T00:43:10.372Z,99.90
2018-06-27T00:45:38.841Z,99.90
2018-06-27T00:48:07.645Z,99.90
2018-06-27T00:50:36.147Z,99.90
2018-06-27T00:53:04.616Z,99.90
2018-06-27T00:55:33.155Z,99.90
2018-06-27T00:58:02.277Z,99.90
2018-06-27T01:00:30.901Z,99.90
2018-06-27T01:02:59.345Z,99.90
2018-06-27T01:05:27.905Z,99.90
2018-06-27T01:07:57.256Z,99.90
2018-06-27T01:10:25.811Z,99.90
2018-06-27T01:12:55.079Z,99.90
2018-06-27T01:15:23.656Z,99.90
2018-06-27T01:17:54.313Z,99.90
2018-06-27T01:20:22.812Z,99.90
2018-06-27T01:22:51.838Z,99.90
2018-06-27T01:25:21.001Z,99.90
2018-06-27T01:27:49.531Z,99.90
2018-06-27T01:30:18.177Z,99.90
2018-06-27T01:32:46.745Z,99.90
2018-06-27T01:35:15.292Z,99.90
2018-06-27T01:37:44.022Z,99.90
2018-06-27T01:40:12.566Z,99.90
2018-06-27T01:42:41.463Z,99.90
2018-06-27T01:45:10.553Z,99.90
2018-06-27T01:47:39.031Z,99.90
2018-06-27T01:50:07.482Z,99.90
2018-06-27T01:52:36.808Z,99.90
2018-06-27T01:55:05.360Z,99.90
2018-06-27T01:57:33.982Z,99.90
2018-06-27T02:00:02.576Z,99.90
2018-06-27T02:02:31.040Z,99.90
2018-06-27T02:04:59.581Z,99.90
2018-06-27T02:07:28.859Z,99.90
2018-06-27T02:09:57.338Z,99.90
2018-06-27T02:12:25.822Z,99.90
2018-06-27T02:14:54.385Z,99.90
2018-06-27T02:17:23.727Z,99.90
2018-06-27T02:19:52.220Z,99.90
2018-06-27T02:22:20.755Z,99.90
2018-06-27T02:24:49.948Z,99.90
2018-06-27T02:27:18.541Z,99.90
2018-06-27T02:29:47.106Z,99.90
2018-06-27T02:32:15.554Z,99.90
2018-06-27T02:34:44.182Z,99.90
2018-06-27T02:37:13.221Z,99.90
2018-06-27T02:39:41.694Z,99.90
2018-06-27T02:42:11.036Z,99.90
2018-06-27T02:44:39.453Z,99.90
2018-06-27T02:47:07.900Z,99.90
2018-06-27T02:49:37.140Z,99.90
2018-06-27T02:52:06.335Z,99.90
2018-06-27T02:54:35.557Z,99.90
2018-06-27T02:57:04.661Z,99.90
2018-06-27T02:59:33.185Z,99.90
2018-06-27T03:02:02.350Z,99.90
2018-06-27T03:04:30.866Z,99.90
2018-06-27T03:06:59.529Z,99.90
2018-06-27T03:09:28.080Z,99.90
2018-06-27T03:11:57.034Z,99.90
2018-06-27T03:14:25.484Z,99.90
2018-06-27T03:16:54.618Z,99.90
2018-06-27T03:19:23.056Z,99.90
2018-06-27T03:21:51.534Z,99.90
2018-06-27T03:24:20.078Z,99.90
2018-06-27T03:26:48.621Z,99.90
2018-06-27T03:29:17.941Z,99.90
2018-06-27T03:31:46.594Z,99.90
2018-06-27T03:34:15.188Z,99.90
2018-06-27T03:36:43.630Z,99.90
2018-06-27T03:39:12.076Z,99.90
2018-06-27T03:41:41.005Z,99.90
2018-06-27T03:44:09.530Z,99.90
2018-06-27T03:46:37.988Z,99.90
2018-06-27T03:49:07.176Z,99.90
2018-06-27T03:51:35.716Z,99.90
2018-06-27T03:54:05.317Z,99.90
2018-06-27T03:56:34.325Z,99.90
2018-06-27T03:59:03.503Z,99.90
2018-06-27T04:01:32.921Z,99.90
2018-06-27T04:04:01.858Z,99.90
2018-06-27T04:06:30.362Z,99.90
2018-06-27T04:08:58.817Z,99.90
2018-06-27T04:11:27.464Z,99.90
2018-06-27T04:13:56.862Z,99.90
2018-06-27T04:16:25.367Z,99.90
2018-06-27T04:18:53.832Z,99.90
2018-06-27T04:21:22.469Z,99.90
2018-06-27T04:23:50.986Z,99.90
2018-06-27T04:26:19.444Z,99.90
2018-06-27T04:28:47.865Z,99.90
2018-06-27T04:31:16.464Z,99.90
2018-06-27T04:33:45.043Z,99.90
2018-06-27T04:36:13.631Z,99.90
2018-06-27T04:38:41.973Z,99.90
2018-06-27T04:41:10.567Z,99.90
2018-06-27T04:43:39.039Z,99.90
2018-06-27T04:46:07.530Z,99.90
2018-06-27T04:48:36.126Z,99.90
2018-06-27T04:51:04.697Z,99.90
2018-06-27T04:53:33.191Z,99.90
2018-06-27T04:56:01.780Z,99.90
2018-06-27T04:58:30.969Z,99.90
2018-06-27T05:00:59.517Z,99.90
2018-06-27T05:03:28.644Z,99.90
2018-06-27T05:05:57.148Z,99.90
2018-06-27T05:08:26.068Z,99.90
2018-06-27T05:10:54.521Z,99.90
2018-06-27T05:13:23.587Z,99.90
2018-06-27T05:15:52.098Z,99.90
2018-06-27T05:18:20.682Z,99.90
2018-06-27T05:20:49.245Z,99.90
2018-06-27T05:23:17.689Z,99.90
2018-06-27T05:25:46.386Z,99.90
2018-06-27T05:28:16.033Z,99.90
2018-06-27T05:30:44.595Z,99.90
2018-06-27T05:33:13.045Z,99.90
2018-06-27T05:35:41.573Z,99.90
2018-06-27T05:38:10.037Z,99.90
2018-06-27T05:40:38.813Z,99.90
2018-06-27T05:43:07.364Z,99.90
2018-06-27T05:45:35.810Z,99.90
2018-06-27T05:48:04.561Z,99.90
2018-06-27T05:50:33.929Z,99.90
2018-06-27T05:53:03.617Z,99.90
2018-06-27T05:55:32.061Z,99.90
2018-06-27T05:58:01.170Z,99.90
2018-06-27T06:00:29.585Z,99.90
2018-06-27T06:02:58.074Z,99.90
2018-06-27T06:05:26.564Z,99.90
2018-06-27T06:07:55.185Z,99.90
2018-06-27T06:10:23.657Z,99.90
2018-06-27T06:12:52.152Z,99.90
2018-06-27T06:15:20.687Z,99.90
2018-06-27T06:17:49.710Z,99.90
2018-06-27T06:20:18.202Z,99.90
2018-06-27T06:22:46.783Z,99.90
2018-06-27T06:25:15.774Z,99.90
2018-06-27T06:27:44.306Z,99.90
2018-06-27T06:30:12.848Z,99.90
2018-06-27T06:32:41.353Z,99.90
2018-06-27T06:35:09.894Z,99.90
2018-06-27T06:37:38.449Z,99.90
2018-06-27T06:40:07.014Z,99.90
2018-06-27T06:42:36.005Z,99.90
2018-06-27T06:45:04.637Z,99.90
2018-06-27T06:47:33.192Z,99.90
2018-06-27T06:50:01.658Z,99.90
2018-06-27T06:52:30.931Z,99.90
2018-06-27T06:54:59.426Z,99.90
2018-06-27T06:57:28.425Z,99.90
2018-06-27T06:59:56.899Z,99.90
2018-06-27T07:02:25.368Z,99.90
2018-06-27T07:04:54.017Z,99.90
2018-06-27T07:07:23.411Z,99.90
2018-06-27T07:09:52.765Z,99.90
2018-06-27T07:12:21.721Z,99.90
2018-06-27T07:14:50.998Z,99.90
2018-06-27T07:17:20.224Z,99.90
2018-06-27T07:19:48.790Z,99.90
2018-06-27T07:22:17.298Z,99.90
2018-06-27T07:24:46.933Z,99.90
2018-06-27T07:27:15.565Z,99.90
2018-06-27T07:29:44.033Z,99.90
2018-06-27T07:32:12.590Z,99.90
2018-06-27T07:34:41.148Z,99.90
2018-06-27T07:37:09.630Z,99.90
2018-06-27T07:39:38.060Z,99.60
2018-06-27T07:42:06.590Z,98.90
2018-06-27T07:44:35.237Z,98.80
2018-06-27T07:47:03.599Z,98.50
2018-06-27T07:49:32.190Z,97.80
2018-06-27T07:52:01.483Z,97.20
2018-06-27T07:54:34.309Z,96.90
2018-06-27T07:57:02.790Z,96.70
2018-06-27T07:59:31.408Z,95.60
2018-06-27T08:01:59.906Z,95.00
2018-06-27T08:04:28.549Z,95.80
2018-06-27T08:06:57.038Z,95.20
2018-06-27T08:09:26.306Z,95.10
2018-06-27T08:11:54.778Z,94.40
2018-06-27T08:14:23.291Z,94.60
2018-06-27T08:16:51.856Z,94.00
2018-06-27T08:19:20.309Z,94.40
2018-06-27T08:21:49.063Z,93.40
2018-06-27T08:24:17.558Z,93.50
2018-06-27T08:26:46.054Z,93.30
2018-06-27T08:29:14.506Z,91.60
2018-06-27T08:31:43.093Z,90.60
2018-06-27T08:34:11.808Z,90.00
2018-06-27T08:36:40.297Z,91.30
2018-06-27T08:39:10.021Z,91.70
2018-06-27T08:41:39.131Z,90.90
2018-06-27T08:44:07.737Z,88.00
2018-06-27T08:46:36.223Z,89.00
2018-06-27T08:49:04.761Z,86.20
2018-06-27T08:51:33.365Z,86.70
2018-06-27T08:54:02.381Z,85.10
2018-06-27T08:56:30.951Z,86.80
2018-06-27T08:58:59.477Z,84.10
2018-06-27T09:01:27.971Z,84.20
2018-06-27T09:03:57.280Z,81.10
2018-06-27T09:06:25.897Z,84.60
2018-06-27T09:08:54.393Z,85.30
2018-06-27T09:11:22.924Z,84.40
2018-06-27T09:13:51.498Z,84.00
2018-06-27T09:16:19.941Z,87.20
2018-06-27T09:18:48.630Z,86.50
2018-06-27T09:21:17.105Z,83.70
2018-06-27T09:23:46.093Z,83.50
2018-06-27T09:26:14.541Z,83.60
2018-06-27T09:28:43.684Z,83.30
2018-06-27T09:31:12.155Z,85.00
2018-06-27T09:33:40.624Z,82.60
2018-06-27T09:36:09.746Z,84.40
2018-06-27T09:38:38.142Z,85.30
2018-06-27T09:41:06.725Z,87.10
2018-06-27T09:43:35.205Z,85.30
2018-06-27T09:46:03.727Z,86.50
2018-06-27T09:48:32.238Z,85.20
2018-06-27T09:51:00.706Z,82.30
2018-06-27T09:53:29.965Z,84.90
2018-06-27T09:55:58.446Z,86.90
2018-06-27T09:58:27.674Z,83.60
2018-06-27T10:00:56.142Z,84.00
2018-06-27T10:03:24.623Z,80.20
2018-06-27T10:05:53.114Z,82.70
2018-06-27T10:08:21.601Z,85.30
2018-06-27T10:10:50.630Z,84.30
2018-06-27T10:13:19.121Z,83.50
2018-06-27T10:15:47.641Z,83.70
2018-06-27T10:18:16.233Z,83.10
2018-06-27T10:20:45.361Z,85.00
2018-06-27T10:23:14.070Z,83.60
2018-06-27T10:25:42.594Z,86.40
2018-06-27T10:28:11.160Z,79.60
2018-06-27T10:30:39.753Z,82.40
2018-06-27T10:33:08.943Z,82.40
2018-06-27T10:35:37.492Z,84.20
2018-06-27T10:38:06.081Z,78.40
2018-06-27T10:40:35.202Z,79.60
2018-06-27T10:43:03.715Z,78.70
2018-06-27T10:45:32.239Z,74.20
2018-06-27T10:48:01.260Z,75.40
2018-06-27T10:50:29.729Z,78.30
2018-06-27T10:52:58.189Z,78.30
2018-06-27T10:55:26.794Z,77.50
2018-06-27T10:57:56.120Z,77.00
2018-06-27T11:00:24.541Z,76.60
2018-06-27T11:02:53.017Z,78.20
2018-06-27T11:05:21.537Z,78.40
2018-06-27T11:07:50.488Z,78.50
2018-06-27T11:10:19.074Z,78.90
2018-06-27T11:12:47.596Z,79.20
2018-06-27T11:15:16.009Z,79.00
2018-06-27T11:17:44.455Z,77.40
2018-06-27T11:20:12.990Z,78.40
2018-06-27T11:22:41.583Z,79.10
2018-06-27T11:25:10.581Z,77.20
2018-06-27T11:27:39.610Z,78.00
2018-06-27T11:30:08.660Z,80.30
2018-06-27T11:32:37.139Z,76.10
2018-06-27T11:35:05.628Z,75.90
2018-06-27T11:37:35.111Z,77.60
2018-06-27T11:40:04.107Z,78.00
2018-06-27T11:42:32.648Z,76.60
2018-06-27T11:45:01.211Z,75.80
2018-06-27T11:49:59.690Z,75.70
2018-06-27T11:52:28.733Z,75.60
2018-06-27T11:55:03.166Z,75.70
2018-06-27T11:57:31.621Z,73.20
2018-06-27T12:00:00.221Z,71.00
2018-06-27T12:02:28.820Z,73.80
2018-06-27T12:04:57.289Z,75.80
2018-06-27T12:07:25.890Z,76.40
2018-06-27T12:09:54.406Z,72.00
2018-06-27T12:12:22.943Z,72.00
2018-06-27T12:14:52.244Z,71.00
2018-06-27T12:17:20.666Z,72.00
2018-06-27T12:19:49.795Z,72.10
2018-06-27T12:22:18.358Z,70.90
2018-06-27T12:24:46.952Z,68.70
2018-06-27T12:27:15.469Z,68.70
2018-06-27T12:29:44.045Z,68.50
2018-06-27T12:32:12.758Z,67.00
2018-06-27T12:34:41.348Z,63.50
2018-06-27T12:37:10.334Z,64.30
2018-06-27T12:39:39.583Z,64.00
2018-06-27T12:42:08.340Z,62.30
2018-06-27T12:44:36.915Z,65.10
2018-06-27T12:47:05.548Z,65.30
2018-06-27T12:49:34.039Z,64.20
2018-06-27T12:52:02.557Z,64.20
2018-06-27T12:54:31.860Z,64.50
2018-06-27T12:57:00.616Z,62.90
2018-06-27T12:59:29.147Z,60.80
2018-06-27T13:01:57.796Z,58.50
2018-06-27T13:04:26.239Z,56.80
2018-06-27T13:06:54.737Z,58.30
2018-06-27T13:09:23.245Z,58.20
2018-06-27T13:11:51.709Z,59.50
2018-06-27T13:14:20.185Z,60.80
2018-06-27T13:16:48.652Z,57.30
2018-06-27T13:19:17.266Z,59.10
2018-06-27T13:21:45.678Z,56.60
2018-06-27T13:24:14.141Z,56.60
2018-06-27T13:26:42.627Z,57.90
2018-06-27T13:29:11.108Z,57.70
2018-06-27T13:31:39.575Z,55.00
2018-06-27T13:34:07.990Z,53.30
2018-06-27T13:36:36.458Z,54.40
2018-06-27T13:39:07.553Z,53.40
2018-06-27T13:41:36.238Z,53.90
2018-06-27T13:44:05.263Z,54.10
2018-06-27T13:46:34.371Z,53.10
2018-06-27T13:49:04.683Z,53.00
2018-06-27T13:51:33.237Z,54.70
2018-06-27T13:54:02.581Z,52.60
2018-06-27T13:56:31.035Z,51.10
2018-06-27T13:58:59.691Z,52.80
2018-06-27T14:01:28.327Z,53.20
2018-06-27T14:03:56.836Z,50.80
2018-06-27T14:06:25.355Z,51.30
2018-06-27T14:08:55.110Z,52.20
2018-06-27T14:11:23.848Z,52.00
2018-06-27T14:13:52.391Z,51.00
2018-06-27T14:16:20.929Z,52.80
2018-06-27T14:18:49.487Z,51.40
2018-06-27T14:21:19.072Z,51.30
2018-06-27T14:23:47.653Z,53.20
2018-06-27T14:26:16.256Z,53.00
2018-06-27T14:28:44.868Z,52.50
2018-06-27T14:31:13.384Z,50.70
2018-06-27T14:33:42.542Z,51.80
2018-06-27T14:36:11.074Z,51.90
2018-06-27T14:38:40.397Z,52.50
2018-06-27T14:41:08.960Z,53.60
2018-06-27T14:43:37.450Z,51.50
2018-06-27T14:46:06.132Z,53.00
2018-06-27T14:48:34.782Z,50.00
2018-06-27T14:51:03.378Z,51.60
2018-06-27T14:53:31.858Z,53.20
2018-06-27T14:56:00.515Z,53.80
2018-06-27T14:58:29.045Z,53.80
2018-06-27T15:00:57.613Z,52.40
2018-06-27T15:03:26.158Z,53.20
2018-06-27T15:13:14.590Z,52.90
2018-06-27T15:15:43.345Z,55.50
2018-06-27T15:18:16.273Z,55.70
2018-06-27T15:20:51.264Z,56.20
2018-06-27T15:23:19.745Z,55.60
2018-06-27T15:25:48.293Z,57.20
2018-06-27T15:28:16.900Z,56.90
2018-06-27T15:30:46.040Z,57.10
2018-06-27T15:33:14.632Z,55.60
2018-06-27T15:35:43.165Z,56.50
2018-06-27T15:38:11.822Z,57.80
2018-06-27T15:40:40.421Z,58.50
2018-06-27T15:43:08.920Z,56.70
2018-06-27T15:45:37.485Z,57.40
2018-06-27T15:48:06.123Z,55.90
2018-06-27T15:50:34.665Z,56.90
2018-06-27T15:53:03.505Z,56.90
2018-06-27T15:55:32.726Z,57.20
2018-06-27T15:58:01.282Z,55.90
2018-06-27T16:00:29.973Z,55.60
2018-06-27T16:02:58.630Z,57.90
2018-06-27T16:05:27.129Z,57.50
2018-06-27T16:07:55.647Z,56.90
2018-06-27T16:10:24.137Z,56.40
2018-06-27T16:12:52.893Z,55.00
2018-06-27T16:15:21.424Z,53.40
2018-06-27T16:17:50.031Z,53.20
2018-06-27T16:20:18.650Z,53.30
2018-06-27T16:22:47.220Z,53.30
2018-06-27T16:25:15.696Z,54.50
2018-06-27T16:27:44.341Z,55.80
2018-06-27T16:30:12.883Z,56.20
2018-06-27T16:32:41.458Z,57.20
2018-06-27T16:35:09.976Z,56.30
2018-06-27T16:37:38.597Z,56.40
2018-06-27T16:40:07.243Z,55.70
2018-06-27T16:42:35.811Z,54.20
2018-06-27T16:45:04.410Z,54.60
2018-06-27T16:47:32.932Z,55.20
2018-06-27T16:50:01.456Z,54.00
2018-06-27T16:52:29.934Z,55.80
2018-06-27T16:54:58.613Z,55.00
2018-06-27T16:57:27.399Z,53.90
2018-06-27T16:59:55.977Z,53.50
2018-06-27T17:02:24.640Z,53.80
2018-06-27T17:04:53.206Z,54.90
2018-06-27T17:07:21.739Z,55.10
2018-06-27T17:09:50.818Z,54.40
2018-06-27T17:12:19.386Z,53.90
2018-06-27T17:14:48.022Z,54.70
2018-06-27T17:17:16.709Z,55.30
2018-06-27T17:19:45.198Z,55.80
2018-06-27T17:22:13.735Z,56.60
2018-06-27T17:24:43.759Z,56.40
2018-06-27T17:27:12.344Z,56.40
2018-06-27T17:29:41.067Z,57.20
2018-06-27T17:32:09.727Z,57.20
2018-06-27T17:34:38.338Z,56.90
2018-06-27T17:37:06.914Z,57.00
2018-06-27T17:39:35.440Z,58.10
2018-06-27T17:42:04.889Z,58.20
2018-06-27T17:44:33.437Z,58.20
2018-06-27T17:47:02.029Z,58.90
2018-06-27T17:49:30.663Z,59.50
2018-06-27T17:51:59.201Z,59.10
2018-06-27T17:54:27.843Z,59.20
2018-06-27T17:56:56.526Z,59.50
2018-06-27T17:59:25.046Z,59.50
2018-06-27T18:01:53.595Z,60.80
2018-06-27T18:04:22.102Z,62.20
2018-06-27T18:06:50.711Z,63.40
2018-06-27T18:09:19.272Z,63.80
2018-06-27T18:11:47.823Z,64.40
2018-06-27T18:14:16.606Z,64.50
2018-06-27T18:16:45.171Z,64.80
2018-06-27T18:19:14.342Z,65.90
2018-06-27T18:21:42.872Z,66.70
2018-06-27T18:24:17.880Z,67.20
2018-06-27T18:26:46.523Z,68.30
2018-06-27T18:29:15.167Z,68.50
2018-06-27T18:31:44.448Z,68.60
2018-06-27T18:34:13.003Z,69.00
2018-06-27T18:36:41.707Z,70.10
2018-06-27T18:39:11.154Z,70.20
2018-06-27T18:41:39.863Z,70.80
2018-06-27T18:44:08.424Z,70.60
2018-06-27T18:46:37.271Z,71.20
2018-06-27T18:49:06.739Z,71.70
2018-06-27T18:51:35.975Z,72.00
2018-06-27T18:54:04.606Z,72.50
2018-06-27T18:56:33.138Z,73.50
2018-06-27T18:59:01.690Z,74.00
2018-06-27T19:01:30.230Z,74.50
2018-06-27T19:03:59.462Z,75.90
2018-06-27T19:06:28.073Z,76.80
2018-06-27T19:08:56.613Z,78.00
2018-06-27T19:11:25.237Z,79.10
2018-06-27T19:13:53.811Z,79.60
2018-06-27T19:16:22.386Z,80.50
2018-06-27T19:18:50.930Z,81.20
2018-06-27T19:21:19.739Z,81.20
2018-06-27T19:23:49.134Z,81.20
2018-06-27T19:26:18.413Z,81.40
2018-06-27T19:28:46.963Z,82.20
2018-06-27T19:31:15.533Z,82.70
2018-06-27T19:33:44.136Z,83.60
2018-06-27T19:36:12.653Z,83.70
2018-06-27T19:38:41.178Z,84.10
2018-06-27T19:41:09.801Z,84.60
2018-06-27T19:43:38.330Z,85.30
2018-06-27T19:46:07.402Z,85.70
2018-06-27T19:48:36.700Z,85.70
2018-06-27T19:51:05.210Z,86.10
2018-06-27T19:53:33.849Z,86.30
2018-06-27T19:56:02.539Z,86.10
2018-06-27T19:58:31.331Z,86.00
2018-06-27T20:00:59.892Z,86.30
2018-06-27T20:03:28.869Z,86.50
2018-06-27T20:05:57.476Z,86.90
2018-06-27T20:08:26.014Z,87.20
2018-06-27T20:10:54.558Z,87.80
2018-06-27T20:13:23.407Z,88.00
2018-06-27T20:15:52.050Z,88.30
2018-06-27T20:18:21.502Z,88.80
2018-06-27T20:20:50.115Z,88.70
2018-06-27T20:23:18.694Z,88.90
2018-06-27T20:25:47.267Z,89.10
2018-06-27T20:28:15.971Z,89.40
2018-06-27T20:30:44.531Z,89.40
2018-06-27T20:33:13.913Z,89.20
2018-06-27T20:35:43.855Z,89.50
2018-06-27T20:38:13.095Z,89.80
2018-06-27T20:40:41.641Z,90.20
2018-06-27T20:43:10.160Z,90.30
2018-06-27T20:45:38.656Z,90.50
2018-06-27T20:48:07.197Z,89.90
2018-06-27T20:50:36.320Z,90.20
2018-06-27T20:53:05.193Z,90.00
2018-06-27T20:55:33.955Z,89.80
2018-06-27T20:58:02.293Z,89.40
2018-06-27T21:00:30.898Z,89.50
2018-06-27T21:02:59.520Z,89.60
2018-06-27T21:05:28.110Z,89.90
2018-06-27T21:07:56.688Z,90.10
2018-06-27T21:10:25.154Z,90.10
2018-06-27T21:12:53.680Z,89.60
2018-06-27T21:15:22.181Z,90.10
2018-06-27T21:17:50.803Z,90.50
2018-06-27T21:20:20.295Z,90.50
2018-06-27T21:22:48.971Z,90.10
2018-06-27T21:25:17.614Z,90.40
2018-06-27T21:27:46.122Z,90.60
2018-06-27T21:30:15.294Z,90.80
2018-06-27T21:32:43.827Z,90.90
2018-06-27T21:35:12.316Z,91.30
2018-06-27T21:37:41.405Z,91.50
2018-06-27T21:40:09.934Z,91.70
2018-06-27T21:42:38.427Z,91.90
2018-06-27T21:45:06.964Z,91.90
2018-06-27T21:47:35.629Z,92.00
2018-06-27T21:50:04.204Z,92.10
2018-06-27T21:52:32.899Z,92.30
2018-06-27T21:55:01.432Z,92.40
2018-06-27T21:57:30.085Z,92.40
2018-06-27T21:59:58.725Z,92.50
2018-06-27T22:02:27.217Z,92.50
2018-06-27T22:04:56.296Z,92.70
2018-06-27T22:07:24.922Z,92.70
2018-06-27T22:09:53.499Z,92.90
2018-06-27T22:12:22.144Z,93.20
2018-06-27T22:14:51.378Z,93.40
2018-06-27T22:17:20.158Z,93.30
2018-06-27T22:19:48.844Z,93.40
2018-06-27T22:22:17.628Z,93.60
2018-06-27T22:24:46.242Z,93.70
2018-06-27T22:27:15.093Z,93.80
2018-06-27T22:29:44.207Z,93.80
2018-06-27T22:32:12.687Z,93.90
2018-06-27T22:34:41.839Z,94.10
2018-06-27T22:37:10.487Z,94.30
2018-06-27T22:39:40.018Z,94.60
2018-06-27T22:42:08.900Z,95.00
2018-06-27T22:44:37.406Z,95.50
2018-06-27T22:47:06.269Z,95.60
2018-06-27T22:49:35.196Z,95.80
2018-06-27T22:52:03.837Z,95.90
2018-06-27T22:54:32.370Z,96.00
2018-06-27T22:57:00.902Z,96.10
2018-06-27T22:59:29.498Z,96.10
2018-06-27T23:01:58.037Z,96.10
2018-06-27T23:04:26.874Z,96.00
2018-06-27T23:06:56.227Z,96.00
2018-06-27T23:09:24.791Z,96.00
2018-06-27T23:11:53.360Z,95.80
2018-06-27T23:14:22.048Z,95.90
2018-06-27T23:16:50.561Z,96.00
2018-06-27T23:19:19.862Z,96.10
2018-06-27T23:21:48.443Z,96.00
2018-06-27T23:24:17.862Z,96.10
2018-06-27T23:26:46.419Z,96.10
2018-06-27T23:29:15.065Z,96.30
2018-06-27T23:31:43.619Z,96.50
2018-06-27T23:34:12.109Z,96.50
2018-06-27T23:36:40.678Z,96.40
2018-06-27T23:39:11.126Z,96.40
2018-06-27T23:41:40.356Z,96.60
2018-06-27T23:44:09.940Z,96.60
2018-06-27T23:46:38.643Z,96.80
2018-06-27T23:49:07.220Z,97.00
2018-06-27T23:51:35.939Z,97.10
2018-06-27T23:54:04.539Z,97.30
2018-06-27T23:56:33.069Z,97.40
2018-06-27T23:59:02.598Z,97.60
